createdAt,value
2018-11-25T00:01:01.653Z,25.53
2018-11-25T00:03:30.027Z,24.87
2018-11-25T00:05:58.675Z,29.87
2018-11-25T00:08:26.848Z,26.60
2018-11-25T00:10:54.823Z,24.23
2018-11-25T00:13:22.983Z,24.10
2018-11-25T00:15:50.935Z,26.50
2018-11-25T00:18:19.288Z,24.70
2018-11-25T00:20:47.959Z,26.47
2018-11-25T00:23:15.895Z,28.50
2018-11-25T00:25:45.070Z,24.40
2018-11-25T00:28:13.244Z,26.63
2018-11-25T00:30:41.579Z,23.33
2018-11-25T00:33:10.587Z,26.90
2018-11-25T00:35:39.054Z,25.10
2018-11-25T00:38:08.168Z,27.13
2018-11-25T00:40:36.831Z,31.63
2018-11-25T00:43:06.379Z,27.77
2018-11-25T00:45:34.626Z,27.57
2018-11-25T00:48:02.660Z,28.37
2018-11-25T00:50:32.201Z,29.60
2018-11-25T00:53:01.117Z,25.23
2018-11-25T00:55:29.549Z,27.57
2018-11-25T00:57:57.963Z,28.73
2018-11-25T01:00:26.643Z,27.13
2018-11-25T01:02:55.620Z,27.33
2018-11-25T01:05:24.294Z,24.83
2018-11-25T01:07:52.447Z,25.50
2018-11-25T01:10:20.716Z,21.00
2018-11-25T01:12:49.084Z,24.30
2018-11-25T01:15:17.379Z,24.37
2018-11-25T01:17:46.342Z,29.40
2018-11-25T01:20:18.791Z,22.77
2018-11-25T01:22:46.702Z,20.23
2018-11-25T01:25:15.201Z,21.73
2018-11-25T01:27:44.266Z,22.37
2018-11-25T01:30:13.644Z,21.17
2018-11-25T01:32:41.566Z,21.97
2018-11-25T01:35:10.556Z,19.27
2018-11-25T01:37:39.433Z,20.13
2018-11-25T01:40:13.431Z,18.50
2018-11-25T01:42:42.300Z,18.90
2018-11-25T01:45:12.204Z,20.90
2018-11-25T01:47:40.378Z,21.67
2018-11-25T01:50:12.465Z,20.00
2018-11-25T01:52:41.618Z,21.27
2018-11-25T01:55:11.971Z,21.63
2018-11-25T01:57:40.299Z,21.77
2018-11-25T02:00:15.385Z,24.87
2018-11-25T02:02:44.158Z,23.33
2018-11-25T02:05:13.191Z,21.10
2018-11-25T02:07:41.563Z,19.67
2018-11-25T02:10:14.744Z,21.83
2018-11-25T02:12:43.223Z,19.70
2018-11-25T02:15:12.385Z,23.10
2018-11-25T02:17:41.594Z,23.37
2018-11-25T02:20:13.271Z,22.33
2018-11-25T02:22:41.195Z,22.47
2018-11-25T02:25:09.441Z,20.77
2018-11-25T02:27:37.387Z,24.57
2018-11-25T02:30:08.272Z,24.33
2018-11-25T02:32:36.519Z,23.63
2018-11-25T02:35:06.269Z,23.03
2018-11-25T02:37:34.243Z,19.57
2018-11-25T02:40:02.200Z,25.03
2018-11-25T02:42:30.443Z,22.17
2018-11-25T02:44:59.717Z,23.50
2018-11-25T02:47:28.292Z,39.27
2018-11-25T02:49:57.907Z,24.53
2018-11-25T02:52:26.408Z,46.27
2018-11-25T02:54:54.351Z,25.70
2018-11-25T02:57:23.505Z,25.17
2018-11-25T02:59:53.368Z,21.07
2018-11-25T03:02:23.618Z,32.03
2018-11-25T03:04:54.051Z,26.67
2018-11-25T03:07:21.983Z,24.77
2018-11-25T03:09:50.439Z,24.73
2018-11-25T03:12:18.596Z,22.83
2018-11-25T03:14:46.527Z,22.60
2018-11-25T03:17:15.451Z,23.13
2018-11-25T03:19:43.468Z,27.80
2018-11-25T03:22:12.283Z,27.07
2018-11-25T03:24:40.523Z,31.63
2018-11-25T03:27:08.586Z,43.17
2018-11-25T03:29:36.532Z,98.80
2018-11-25T03:32:04.702Z,190.27
2018-11-25T03:34:32.882Z,237.13
2018-11-25T03:37:02.257Z,153.77
2018-11-25T03:39:30.694Z,157.33
2018-11-25T03:41:59.312Z,128.10
2018-11-25T03:44:27.590Z,284.07
2018-11-25T03:46:55.746Z,236.10
2018-11-25T03:49:24.310Z,196.53
2018-11-25T03:51:52.491Z,225.93
2018-11-25T03:54:20.650Z,170.03
2018-11-25T03:56:48.571Z,225.37
2018-11-25T03:59:17.096Z,215.30
2018-11-25T04:01:46.440Z,191.90
2018-11-25T04:04:15.727Z,161.37
2018-11-25T04:06:45.203Z,85.47
2018-11-25T04:09:13.528Z,284.73
2018-11-25T04:11:42.007Z,286.50
2018-11-25T04:14:10.288Z,259.33
2018-11-25T04:16:38.238Z,302.03
2018-11-25T04:19:07.371Z,239.63
2018-11-25T04:21:35.979Z,136.93
2018-11-25T04:24:04.188Z,180.47
2018-11-25T04:26:33.002Z,191.83
2018-11-25T04:29:01.334Z,164.50
2018-11-25T04:31:29.275Z,108.03
2018-11-25T04:33:57.932Z,136.17
2018-11-25T04:36:26.151Z,131.43
2018-11-25T04:38:54.447Z,71.27
2018-11-25T04:41:22.630Z,75.07
2018-11-25T04:43:51.508Z,114.27
2018-11-25T04:46:20.526Z,123.20
2018-11-25T04:48:48.713Z,74.43
2018-11-25T04:51:16.984Z,48.57
2018-11-25T04:53:45.305Z,56.47
2018-11-25T04:56:14.783Z,42.33
2018-11-25T04:58:42.962Z,24.47
2018-11-25T05:01:11.245Z,38.50
2018-11-25T05:03:39.396Z,38.53
2018-11-25T05:06:07.654Z,43.17
2018-11-25T05:08:35.643Z,50.30
2018-11-25T05:11:03.894Z,37.60
2018-11-25T05:13:32.067Z,25.00
2018-11-25T05:16:00.246Z,20.33
2018-11-25T05:18:28.951Z,19.67
2018-11-25T05:20:57.238Z,21.47
2018-11-25T05:23:27.339Z,23.87
2018-11-25T05:25:55.314Z,56.40
2018-11-25T05:28:23.267Z,31.43
2018-11-25T05:30:52.387Z,30.23
2018-11-25T05:33:20.738Z,55.90
2018-11-25T05:35:49.589Z,29.20
2018-11-25T05:38:18.003Z,76.65
2018-11-25T05:40:46.334Z,52.60
2018-11-25T05:43:15.380Z,46.13
2018-11-25T05:45:43.834Z,100.03
2018-11-25T05:48:12.896Z,57.83
2018-11-25T05:50:40.990Z,74.67
2018-11-25T05:53:08.918Z,78.83
2018-11-25T05:55:37.169Z,107.33
2018-11-25T05:58:05.434Z,78.33
2018-11-25T06:00:34.468Z,45.43
2018-11-25T06:03:03.043Z,124.00
2018-11-25T06:05:31.487Z,74.60
2018-11-25T06:07:59.730Z,53.20
2018-11-25T06:10:27.887Z,69.47
2018-11-25T06:12:56.066Z,91.03
2018-11-25T06:15:24.436Z,105.07
2018-11-25T06:17:52.728Z,47.80
2018-11-25T06:20:21.797Z,50.10
2018-11-25T06:22:50.007Z,70.77
2018-11-25T06:25:19.282Z,72.67
2018-11-25T06:27:48.171Z,67.03
2018-11-25T06:30:16.642Z,96.77
2018-11-25T06:32:44.814Z,84.07
2018-11-25T06:35:14.367Z,129.12
2018-11-25T06:37:43.076Z,85.70
2018-11-25T06:40:13.360Z,97.87
2018-11-25T06:42:41.294Z,129.80
2018-11-25T06:45:10.356Z,102.77
2018-11-25T06:47:38.243Z,109.92
2018-11-25T06:50:08.556Z,104.35
2018-11-25T06:52:36.827Z,85.30
2018-11-25T06:55:05.486Z,82.42
2018-11-25T06:57:34.331Z,87.27
2018-11-25T07:00:02.503Z,82.22
2018-11-25T07:02:31.719Z,131.22
2018-11-25T07:04:59.808Z,103.32
2018-11-25T07:07:27.984Z,101.80
2018-11-25T07:09:56.643Z,102.40
2018-11-25T07:12:24.809Z,82.70
2018-11-25T07:14:53.009Z,62.17
2018-11-25T07:17:20.956Z,71.55
2018-11-25T07:19:49.189Z,79.55
2018-11-25T07:22:17.113Z,108.40
2018-11-25T07:24:45.078Z,45.38
2018-11-25T07:27:13.031Z,56.70
2018-11-25T07:29:41.202Z,63.02
2018-11-25T07:32:09.956Z,57.43
2018-11-25T07:34:38.132Z,39.53
2018-11-25T07:37:06.428Z,28.17
2018-11-25T07:39:34.685Z,29.98
2018-11-25T07:42:03.740Z,29.90
2018-11-25T07:44:32.086Z,32.70
2018-11-25T07:47:00.831Z,34.43
2018-11-25T07:49:29.828Z,25.83
2018-11-25T07:51:58.581Z,52.27
2018-11-25T07:54:27.679Z,42.30
2018-11-25T07:56:55.758Z,76.07
2018-11-25T07:59:25.356Z,82.37
2018-11-25T08:01:53.679Z,90.20
2018-11-25T08:04:22.511Z,80.80
2018-11-25T08:06:51.288Z,51.85
2018-11-25T08:09:19.996Z,35.53
2018-11-25T08:11:48.466Z,36.63
2018-11-25T08:14:17.894Z,56.20
2018-11-25T08:16:46.012Z,73.78
2018-11-25T08:19:14.276Z,39.15
2018-11-25T08:21:42.854Z,41.45
2018-11-25T08:24:11.905Z,39.15
2018-11-25T08:26:40.185Z,39.57
2018-11-25T08:29:09.164Z,41.00
2018-11-25T08:31:37.796Z,38.70
2018-11-25T08:34:06.398Z,40.63
2018-11-25T08:36:35.869Z,40.60
2018-11-25T08:39:07.114Z,45.03
2018-11-25T08:41:35.839Z,35.67
2018-11-25T08:44:04.214Z,37.27
2018-11-25T08:46:32.468Z,39.83
2018-11-25T08:49:00.667Z,37.70
2018-11-25T08:51:28.650Z,44.87
2018-11-25T08:53:57.227Z,40.07
2018-11-25T08:56:26.837Z,47.27
2018-11-25T08:58:55.090Z,49.47
2018-11-25T09:01:23.268Z,49.33
2018-11-25T09:03:51.443Z,53.53
2018-11-25T09:06:19.616Z,53.83
2018-11-25T09:08:47.591Z,47.13
2018-11-25T09:11:15.746Z,45.60
2018-11-25T09:13:43.925Z,51.63
2018-11-25T09:16:12.707Z,69.43
2018-11-25T09:18:40.907Z,68.70
2018-11-25T09:21:09.821Z,57.43
2018-11-25T09:23:38.986Z,54.00
2018-11-25T09:26:06.941Z,49.80
2018-11-25T09:28:35.342Z,48.47
2018-11-25T09:31:03.526Z,51.07
2018-11-25T09:33:32.197Z,46.33
2018-11-25T09:36:00.534Z,47.20
2018-11-25T09:38:28.718Z,48.07
2018-11-25T09:40:59.312Z,49.90
2018-11-25T09:43:25.196Z,49.00
2018-11-25T09:45:53.985Z,44.03
2018-11-25T09:48:22.987Z,47.80
2018-11-25T09:50:51.238Z,44.00
2018-11-25T09:53:19.153Z,40.43
2018-11-25T09:55:47.790Z,42.00
2018-11-25T09:58:15.915Z,39.53
2018-11-25T10:00:44.423Z,40.70
2018-11-25T10:03:12.603Z,39.87
2018-11-25T10:05:41.092Z,40.00
2018-11-25T10:08:09.411Z,36.70
2018-11-25T10:10:37.692Z,35.40
2018-11-25T10:13:06.759Z,37.33
2018-11-25T10:15:35.319Z,35.20
2018-11-25T10:18:03.325Z,35.17
2018-11-25T10:20:32.158Z,31.97
2018-11-25T10:23:00.355Z,33.17
2018-11-25T10:25:28.524Z,32.40
2018-11-25T10:27:56.698Z,30.90
2018-11-25T10:30:25.605Z,30.30
2018-11-25T10:32:55.627Z,30.77
2018-11-25T10:35:24.611Z,31.97
2018-11-25T10:37:53.062Z,29.97
2018-11-25T10:40:22.290Z,26.67
2018-11-25T10:42:50.941Z,27.37
2018-11-25T10:45:24.383Z,28.27
2018-11-25T10:47:52.949Z,26.63
2018-11-25T10:50:21.025Z,27.23
2018-11-25T10:52:49.317Z,24.90
2018-11-25T10:55:18.511Z,25.60
2018-11-25T10:57:47.960Z,22.53
2018-11-25T11:00:24.655Z,21.17
2018-11-25T11:03:59.041Z,21.63
2018-11-25T11:06:33.633Z,20.77
2018-11-25T11:09:01.777Z,19.37
2018-11-25T11:11:31.294Z,17.83
2018-11-25T11:13:59.497Z,15.67
2018-11-25T11:16:28.076Z,16.40
2018-11-25T11:18:56.346Z,14.73
2018-11-25T11:21:24.977Z,17.23
2018-11-25T11:23:53.194Z,15.00
2018-11-25T11:26:25.930Z,13.53
2018-11-25T11:28:54.422Z,12.87
2018-11-25T11:31:22.674Z,12.27
2018-11-25T11:33:51.935Z,13.77
2018-11-25T11:36:20.350Z,14.07
2018-11-25T11:38:49.097Z,13.13
2018-11-25T11:41:17.872Z,12.80
2018-11-25T11:43:47.036Z,12.13
2018-11-25T11:46:14.997Z,15.10
2018-11-25T11:48:42.974Z,12.93
2018-11-25T11:51:11.174Z,10.00
2018-11-25T11:53:39.246Z,10.10
2018-11-25T11:56:08.059Z,9.70
2018-11-25T11:58:36.829Z,9.73
2018-11-25T12:01:05.797Z,10.33
2018-11-25T12:03:34.319Z,10.87
2018-11-25T12:06:02.559Z,11.33
2018-11-25T12:08:30.823Z,10.17
2018-11-25T12:10:59.114Z,10.03
2018-11-25T12:13:28.146Z,9.00
2018-11-25T12:15:57.019Z,9.60
2018-11-25T12:18:25.251Z,11.43
2018-11-25T12:20:53.351Z,11.27
2018-11-25T12:23:22.405Z,10.70
2018-11-25T12:25:50.721Z,10.87
2018-11-25T12:28:19.650Z,11.07
2018-11-25T12:30:47.882Z,12.70
2018-11-25T12:33:15.829Z,11.20
2018-11-25T12:35:44.227Z,10.37
2018-11-25T12:38:12.935Z,9.63
2018-11-25T12:40:41.126Z,10.27
2018-11-25T12:43:10.038Z,12.97
2018-11-25T12:45:38.264Z,16.07
2018-11-25T12:48:06.757Z,10.77
2018-11-25T12:50:35.010Z,9.43
2018-11-25T12:53:03.221Z,10.60
2018-11-25T12:55:31.920Z,10.93
2018-11-25T12:57:59.883Z,11.03
2018-11-25T13:00:37.169Z,9.73
2018-11-25T13:03:07.011Z,11.90
2018-11-25T13:05:35.235Z,12.70
2018-11-25T13:08:03.586Z,9.80
2018-11-25T13:10:32.274Z,8.63
2018-11-25T13:13:00.468Z,12.13
2018-11-25T13:15:29.128Z,10.70
2018-11-25T13:17:57.301Z,10.73
2018-11-25T13:20:25.642Z,11.13
2018-11-25T13:22:53.713Z,11.13
2018-11-25T13:25:22.412Z,12.07
2018-11-25T13:27:50.741Z,18.93
2018-11-25T13:30:21.223Z,14.23
2018-11-25T13:32:51.130Z,11.70
2018-11-25T13:35:19.668Z,12.13
2018-11-25T13:37:47.694Z,11.40
2018-11-25T13:40:17.637Z,13.37
2018-11-25T13:42:46.887Z,11.20
2018-11-25T13:45:15.991Z,12.37
2018-11-25T13:47:43.912Z,13.13
2018-11-25T13:50:13.229Z,13.03
2018-11-25T13:52:42.490Z,12.83
2018-11-25T13:55:27.761Z,11.37
2018-11-25T13:57:55.730Z,11.90
2018-11-25T14:00:55.527Z,11.57
2018-11-25T14:03:40.598Z,10.03
2018-11-25T14:06:13.347Z,9.67
2018-11-25T14:08:42.829Z,9.53
2018-11-25T14:11:13.492Z,11.53
2018-11-25T14:13:41.688Z,7.37
2018-11-25T14:16:16.111Z,8.37
2018-11-25T14:18:44.760Z,7.27
2018-11-25T14:21:13.151Z,8.20
2018-11-25T14:23:42.512Z,6.50
2018-11-25T14:26:15.571Z,10.90
2018-11-25T14:28:44.807Z,8.40
2018-11-25T14:31:14.105Z,7.40
2018-11-25T14:33:42.458Z,6.17
2018-11-25T14:36:10.726Z,6.47
2018-11-25T14:38:39.278Z,8.83
2018-11-25T14:41:07.496Z,7.07
2018-11-25T14:43:35.705Z,5.80
2018-11-25T14:46:04.168Z,8.07
2018-11-25T14:48:32.401Z,8.30
2018-11-25T14:51:00.648Z,8.27
2018-11-25T14:53:29.120Z,5.23
2018-11-25T14:55:57.704Z,5.67
2018-11-25T14:58:25.882Z,6.50
2018-11-25T15:00:53.819Z,8.77
2018-11-25T15:03:21.995Z,6.60
2018-11-25T15:05:50.261Z,9.57
2018-11-25T15:08:24.940Z,10.20
2018-11-25T15:10:53.189Z,13.60
2018-11-25T15:13:22.404Z,28.37
2018-11-25T15:15:51.421Z,19.67
2018-11-25T15:18:19.574Z,17.80
2018-11-25T15:20:48.233Z,15.47
2018-11-25T15:23:17.062Z,14.50
2018-11-25T15:25:51.061Z,12.97
2018-11-25T15:28:17.961Z,14.77
2018-11-25T15:30:46.328Z,19.90
2018-11-25T15:33:14.757Z,19.13
2018-11-25T15:35:43.402Z,15.70
2018-11-25T15:38:12.374Z,21.53
2018-11-25T15:40:41.790Z,23.33
2018-11-25T15:43:10.981Z,25.13
2018-11-25T15:45:39.394Z,43.03
2018-11-25T15:48:10.113Z,35.40
2018-11-25T15:50:38.083Z,46.10
2018-11-25T15:53:06.758Z,31.20
2018-11-25T15:55:35.379Z,22.33
2018-11-25T15:58:04.068Z,25.57
2018-11-25T16:00:32.518Z,30.97
2018-11-25T16:03:00.730Z,28.43
2018-11-25T16:05:29.538Z,28.30
2018-11-25T16:07:57.967Z,24.97
2018-11-25T16:10:26.249Z,25.17
2018-11-25T16:12:55.249Z,24.70
2018-11-25T16:15:24.062Z,41.13
2018-11-25T16:17:52.711Z,28.60
2018-11-25T16:20:24.096Z,22.83
2018-11-25T16:22:53.751Z,22.67
2018-11-25T16:25:23.422Z,27.40
2018-11-25T16:27:52.315Z,23.53
2018-11-25T16:30:20.876Z,20.93
2018-11-25T16:32:49.446Z,17.03
2018-11-25T16:35:17.631Z,19.20
2018-11-25T16:37:46.046Z,19.23
2018-11-25T16:40:15.595Z,16.97
2018-11-25T16:42:43.819Z,15.87
2018-11-25T16:45:13.265Z,16.87
2018-11-25T16:47:41.373Z,18.93
2018-11-25T16:50:09.991Z,17.83
2018-11-25T16:52:38.245Z,18.23
2018-11-25T16:55:08.859Z,19.57
2018-11-25T16:57:37.106Z,21.87
2018-11-25T17:00:18.707Z,20.40
2018-11-25T17:02:47.086Z,18.33
2018-11-25T17:05:20.958Z,25.73
2018-11-25T17:07:49.742Z,29.70
2018-11-25T17:10:18.003Z,22.77
2018-11-25T17:12:46.997Z,21.40
2018-11-25T17:15:21.617Z,24.47
2018-11-25T17:17:50.599Z,23.37
2018-11-25T17:20:19.397Z,22.43
2018-11-25T17:22:48.527Z,26.12
2018-11-25T17:25:17.114Z,23.38
2018-11-25T17:27:46.379Z,21.77
2018-11-25T17:30:18.756Z,21.07
2018-11-25T17:32:48.395Z,21.37
2018-11-25T17:35:18.880Z,24.13
2018-11-25T17:37:47.278Z,20.50
2018-11-25T17:40:16.243Z,23.33
2018-11-25T17:42:44.811Z,19.17
2018-11-25T17:45:13.167Z,22.90
2018-11-25T17:47:41.628Z,20.87
2018-11-25T17:50:11.825Z,19.63
2018-11-25T17:52:40.075Z,21.43
2018-11-25T17:55:10.050Z,19.83
2018-11-25T17:57:38.242Z,21.50
2018-11-25T18:00:14.423Z,22.40
2018-11-25T18:02:43.013Z,22.53
2018-11-25T18:05:11.744Z,20.63
2018-11-25T18:07:39.717Z,21.77
2018-11-25T18:10:09.958Z,24.47
2018-11-25T18:12:38.291Z,24.33
2018-11-25T18:15:09.183Z,28.83
2018-11-25T18:17:37.533Z,24.90
2018-11-25T18:20:06.531Z,25.57
2018-11-25T18:22:35.726Z,29.03
2018-11-25T18:25:03.950Z,48.93
2018-11-25T18:27:31.933Z,41.00
2018-11-25T18:30:00.122Z,49.83
2018-11-25T18:32:28.463Z,38.37
2018-11-25T18:34:56.546Z,31.43
2018-11-25T18:37:25.024Z,30.63
2018-11-25T18:39:55.386Z,46.97
2018-11-25T18:42:23.807Z,51.83
2018-11-25T18:44:52.070Z,42.33
2018-11-25T18:47:20.195Z,35.53
2018-11-25T18:49:48.387Z,29.93
2018-11-25T18:52:16.607Z,28.90
2018-11-25T18:54:48.244Z,24.77
2018-11-25T18:57:16.423Z,25.60
2018-11-25T18:59:44.363Z,26.70
2018-11-25T19:02:17.524Z,24.83
2018-11-25T19:04:45.476Z,34.30
2018-11-25T19:07:13.650Z,31.53
2018-11-25T19:09:41.903Z,41.53
2018-11-25T19:12:10.795Z,45.47
2018-11-25T19:14:39.149Z,38.77
2018-11-25T19:17:07.078Z,34.13
2018-11-25T19:19:35.173Z,42.63
2018-11-25T19:22:03.895Z,34.80
2018-11-25T19:24:31.859Z,37.43
2018-11-25T19:26:59.944Z,39.23
2018-11-25T19:29:28.845Z,51.50
2018-11-25T19:31:57.015Z,39.63
2018-11-25T19:34:25.160Z,47.23
2018-11-25T19:36:53.358Z,45.43
2018-11-25T19:39:21.556Z,36.40
2018-11-25T19:41:49.736Z,31.23
2018-11-25T19:44:18.322Z,33.27
2018-11-25T19:46:46.854Z,28.43
2018-11-25T19:49:15.655Z,31.33
2018-11-25T19:51:43.610Z,33.60
2018-11-25T19:54:11.563Z,37.73
2018-11-25T19:56:39.726Z,34.03
2018-11-25T19:59:07.658Z,30.40
2018-11-25T20:01:35.860Z,30.63
2018-11-25T20:04:04.401Z,36.47
2018-11-25T20:06:32.561Z,38.80
2018-11-25T20:09:00.960Z,35.33
2018-11-25T20:11:29.182Z,35.53
2018-11-25T20:13:57.135Z,37.60
2018-11-25T20:16:30.517Z,31.00
2018-11-25T20:18:59.033Z,27.07
2018-11-25T20:22:33.622Z,23.43
2018-11-25T20:25:02.401Z,27.10
2018-11-25T20:27:36.878Z,23.33
2018-11-25T20:30:09.012Z,26.97
2018-11-25T20:32:42.744Z,27.43
2018-11-25T20:35:10.926Z,27.87
2018-11-25T20:37:44.677Z,33.03
2018-11-25T20:40:12.867Z,30.30
2018-11-25T20:42:41.316Z,29.30
2018-11-25T20:45:15.504Z,28.27
2018-11-25T20:47:43.751Z,30.20
2018-11-25T20:50:12.002Z,30.30
2018-11-25T20:52:46.211Z,33.33
2018-11-25T20:55:14.426Z,29.77
2018-11-25T20:57:42.602Z,31.43
2018-11-25T21:00:16.309Z,31.63
2018-11-25T21:02:44.714Z,27.47
2018-11-25T21:05:13.879Z,29.30
2018-11-25T21:07:42.190Z,30.00
2018-11-25T21:10:13.603Z,28.53
2018-11-25T21:12:42.759Z,27.77
2018-11-25T21:15:11.499Z,26.77
2018-11-25T21:17:40.165Z,28.20
2018-11-25T21:20:11.715Z,29.00
2018-11-25T21:22:40.464Z,25.43
2018-11-25T21:25:11.450Z,25.73
2018-11-25T21:27:39.527Z,28.13
2018-11-25T21:30:16.730Z,25.73
2018-11-25T21:32:45.951Z,29.43
2018-11-25T21:35:14.696Z,29.00
2018-11-25T21:37:42.989Z,25.73
2018-11-25T21:40:13.491Z,27.87
2018-11-25T21:42:41.840Z,27.50
2018-11-25T21:45:11.670Z,26.67
2018-11-25T21:47:40.010Z,30.60
2018-11-25T21:50:11.980Z,31.77
2018-11-25T21:52:40.058Z,31.97
2018-11-25T21:55:09.993Z,31.03
2018-11-25T21:57:38.255Z,35.27
2018-11-25T22:00:11.049Z,38.30
2018-11-25T22:02:39.573Z,35.97
2018-11-25T22:05:09.111Z,36.10
2018-11-25T22:07:37.393Z,39.57
2018-11-25T22:10:08.161Z,41.07
2018-11-25T22:12:37.419Z,41.93
2018-11-25T22:15:08.215Z,43.57
2018-11-25T22:17:36.767Z,40.07
2018-11-25T22:20:07.618Z,41.60
2018-11-25T22:22:35.942Z,43.83
2018-11-25T22:25:04.773Z,52.63
2018-11-25T22:27:33.195Z,50.70
2018-11-25T22:30:01.523Z,45.53
2018-11-25T22:32:29.916Z,50.87
2018-11-25T22:34:58.276Z,47.20
2018-11-25T22:37:26.670Z,52.87
2018-11-25T22:39:55.302Z,45.20
2018-11-25T22:42:23.513Z,51.93
2018-11-25T22:44:51.854Z,52.23
2018-11-25T22:47:20.271Z,44.37
2018-11-25T22:49:48.654Z,49.03
2018-11-25T22:52:17.159Z,49.80
2018-11-25T22:54:45.249Z,52.07
2018-11-25T22:57:13.431Z,48.77
2018-11-25T22:59:42.322Z,52.80
2018-11-25T23:02:10.740Z,52.90
2018-11-25T23:04:50.597Z,48.87
2018-11-25T23:07:18.850Z,52.90
2018-11-25T23:09:47.735Z,50.83
2018-11-25T23:12:16.728Z,51.63
2018-11-25T23:14:45.258Z,53.60
2018-11-25T23:17:13.834Z,54.50
2018-11-25T23:19:41.869Z,54.77
2018-11-25T23:22:10.160Z,52.70
2018-11-25T23:24:38.877Z,51.20
2018-11-25T23:27:07.528Z,49.13
2018-11-25T23:29:35.966Z,55.23
2018-11-25T23:32:04.794Z,51.87
2018-11-25T23:34:32.794Z,53.73
2018-11-25T23:37:01.698Z,54.40
2018-11-25T23:39:30.043Z,52.37
2018-11-25T23:41:58.393Z,53.63
2018-11-25T23:44:27.267Z,54.27
2018-11-25T23:46:55.737Z,57.33
2018-11-25T23:49:24.357Z,50.40
2018-11-25T23:51:52.562Z,54.43
2018-11-25T23:54:20.823Z,54.63
2018-11-25T23:56:48.990Z,55.50
2018-11-25T23:59:17.337Z,61.10
